sensor_id;sensor_type;location;lat;lon;timestamp;temperature;humidity
9179;DHT22;4624;48.126;11.546;2022-09-27T00:00:26;12.00;97.90
9179;DHT22;4624;48.126;11.546;2022-09-27T00:02:53;12.00;98.00
9179;DHT22;4624;48.126;11.546;2022-09-27T00:05:20;12.00;98.10
9179;DHT22;4624;48.126;11.546;2022-09-27T00:07:49;12.10;98.20
9179;DHT22;4624;48.126;11.546;2022-09-27T00:10:15;12.10;98.30
9179;DHT22;4624;48.126;11.546;2022-09-27T00:12:42;12.10;98.30
9179;DHT22;4624;48.126;11.546;2022-09-27T00:15:10;12.00;98.60
9179;DHT22;4624;48.126;11.546;2022-09-27T00:17:37;12.00;98.70
9179;DHT22;4624;48.126;11.546;2022-09-27T00:20:05;12.00;98.90
9179;DHT22;4624;48.126;11.546;2022-09-27T00:22:33;12.00;99.40
9179;DHT22;4624;48.126;11.546;2022-09-27T00:25:02;12.00;99.10
9179;DHT22;4624;48.126;11.546;2022-09-27T00:27:30;12.00;99.30
9179;DHT22;4624;48.126;11.546;2022-09-27T00:29:57;12.00;99.50
9179;DHT22;4624;48.126;11.546;2022-09-27T00:32:24;12.00;99.60
9179;DHT22;4624;48.126;11.546;2022-09-27T00:34:51;12.00;99.90
9179;DHT22;4624;48.126;11.546;2022-09-27T00:37:18;12.00;99.90
9179;DHT22;4624;48.126;11.546;2022-09-27T00:39:45;11.90;99.90
9179;DHT22;4624;48.126;11.546;2022-09-27T00:42:14;11.90;99.90
9179;DHT22;4624;48.126;11.546;2022-09-27T00:45:00;11.90;99.90
9179;DHT22;4624;48.126;11.546;2022-09-27T00:47:31;11.90;99.90
9179;DHT22;4624;48.126;11.546;2022-09-27T00:50:03;11.90;99.90
9179;DHT22;4624;48.126;11.546;2022-09-27T00:52:36;11.90;99.90
9179;DHT22;4624;48.126;11.546;2022-09-27T00:55:08;11.80;99.90
9179;DHT22;4624;48.126;11.546;2022-09-27T00:57:38;11.90;99.90
9179;DHT22;4624;48.126;11.546;2022-09-27T01:00:09;11.90;99.90
9179;DHT22;4624;48.126;11.546;2022-09-27T01:02:37;11.90;99.90
9179;DHT22;4624;48.126;11.546;2022-09-27T01:05:07;11.90;99.90
9179;DHT22;4624;48.126;11.546;2022-09-27T01:07:35;11.80;99.90
9179;DHT22;4624;48.126;11.546;2022-09-27T01:10:03;11.80;99.90
9179;DHT22;4624;48.126;11.546;2022-09-27T01:12:38;11.80;99.90
9179;DHT22;4624;48.126;11.546;2022-09-27T01:15:15;11.70;99.90
9179;DHT22;4624;48.126;11.546;2022-09-27T01:17:50;11.70;99.90
9179;DHT22;4624;48.126;11.546;2022-09-27T01:23:52;11.70;99.90
9179;DHT22;4624;48.126;11.546;2022-09-27T01:29:23;11.60;99.90
9179;DHT22;4624;48.126;11.546;2022-09-27T01:32:03;11.60;99.90
9179;DHT22;4624;48.126;11.546;2022-09-27T01:34:37;11.60;99.90
9179;DHT22;4624;48.126;11.546;2022-09-27T01:37:11;11.50;99.90
9179;DHT22;4624;48.126;11.546;2022-09-27T01:39:47;11.50;99.90
9179;DHT22;4624;48.126;11.546;2022-09-27T01:42:20;11.50;99.90
9179;DHT22;4624;48.126;11.546;2022-09-27T01:44:51;11.50;99.90
9179;DHT22;4624;48.126;11.546;2022-09-27T01:47:22;11.50;99.90
9179;DHT22;4624;48.126;11.546;2022-09-27T01:49:54;11.40;99.90
9179;DHT22;4624;48.126;11.546;2022-09-27T01:52:27;11.40;99.90
9179;DHT22;4624;48.126;11.546;2022-09-27T01:54:57;11.40;99.90
9179;DHT22;4624;48.126;11.546;2022-09-27T01:57:31;11.30;99.90
9179;DHT22;4624;48.126;11.546;2022-09-27T02:00:03;11.30;99.90
9179;DHT22;4624;48.126;11.546;2022-09-27T02:02:34;11.30;99.90
9179;DHT22;4624;48.126;11.546;2022-09-27T02:05:06;11.30;99.90
9179;DHT22;4624;48.126;11.546;2022-09-27T02:07:39;11.30;99.90
9179;DHT22;4624;48.126;11.546;2022-09-27T02:10:09;11.20;99.90
9179;DHT22;4624;48.126;11.546;2022-09-27T02:12:43;11.30;99.90
9179;DHT22;4624;48.126;11.546;2022-09-27T02:15:13;11.20;99.90
9179;DHT22;4624;48.126;11.546;2022-09-27T02:17:44;11.20;99.90
9179;DHT22;4624;48.126;11.546;2022-09-27T02:20:16;11.20;99.90
9179;DHT22;4624;48.126;11.546;2022-09-27T02:22:48;11.20;99.90
9179;DHT22;4624;48.126;11.546;2022-09-27T02:25:20;11.20;99.90
9179;DHT22;4624;48.126;11.546;2022-09-27T02:27:55;11.20;99.90
9179;DHT22;4624;48.126;11.546;2022-09-27T02:30:25;11.10;99.90
9179;DHT22;4624;48.126;11.546;2022-09-27T02:32:53;11.10;99.90
9179;DHT22;4624;48.126;11.546;2022-09-27T02:35:23;11.10;99.90
9179;DHT22;4624;48.126;11.546;2022-09-27T02:37:54;11.10;99.90
9179;DHT22;4624;48.126;11.546;2022-09-27T02:40:21;11.00;99.90
9179;DHT22;4624;48.126;11.546;2022-09-27T02:42:48;11.00;99.90
9179;DHT22;4624;48.126;11.546;2022-09-27T02:45:16;11.00;99.90
9179;DHT22;4624;48.126;11.546;2022-09-27T02:47:58;11.00;99.90
9179;DHT22;4624;48.126;11.546;2022-09-27T02:50:43;11.00;99.90
9179;DHT22;4624;48.126;11.546;2022-09-27T02:53:19;11.00;99.90
9179;DHT22;4624;48.126;11.546;2022-09-27T02:55:52;11.00;99.90
9179;DHT22;4624;48.126;11.546;2022-09-27T02:58:32;11.00;99.90
9179;DHT22;4624;48.126;11.546;2022-09-27T03:01:10;11.00;99.90
9179;DHT22;4624;48.126;11.546;2022-09-27T03:03:45;10.90;99.90
9179;DHT22;4624;48.126;11.546;2022-09-27T03:06:17;10.90;99.90
9179;DHT22;4624;48.126;11.546;2022-09-27T03:08:45;10.90;99.90
9179;DHT22;4624;48.126;11.546;2022-09-27T03:11:13;11.00;99.90
9179;DHT22;4624;48.126;11.546;2022-09-27T03:13:40;11.00;99.90
9179;DHT22;4624;48.126;11.546;2022-09-27T03:16:07;11.00;99.90
9179;DHT22;4624;48.126;11.546;2022-09-27T03:18:34;11.00;99.90
9179;DHT22;4624;48.126;11.546;2022-09-27T03:21:02;11.00;99.90
9179;DHT22;4624;48.126;11.546;2022-09-27T03:23:29;11.00;99.90
9179;DHT22;4624;48.126;11.546;2022-09-27T03:25:56;11.00;99.90
9179;DHT22;4624;48.126;11.546;2022-09-27T03:28:24;11.00;99.90
9179;DHT22;4624;48.126;11.546;2022-09-27T03:30:51;10.90;99.90
9179;DHT22;4624;48.126;11.546;2022-09-27T03:33:18;10.90;99.90
9179;DHT22;4624;48.126;11.546;2022-09-27T03:35:45;11.00;99.90
9179;DHT22;4624;48.126;11.546;2022-09-27T03:38:13;11.00;99.90
9179;DHT22;4624;48.126;11.546;2022-09-27T03:40:40;11.00;99.90
9179;DHT22;4624;48.126;11.546;2022-09-27T03:43:07;11.00;99.90
9179;DHT22;4624;48.126;11.546;2022-09-27T03:45:34;11.00;99.90
9179;DHT22;4624;48.126;11.546;2022-09-27T03:48:01;11.00;99.90
9179;DHT22;4624;48.126;11.546;2022-09-27T03:50:28;11.00;99.90
9179;DHT22;4624;48.126;11.546;2022-09-27T03:52:55;11.00;99.90
9179;DHT22;4624;48.126;11.546;2022-09-27T03:55:23;11.10;99.90
9179;DHT22;4624;48.126;11.546;2022-09-27T03:57:50;11.10;99.90
9179;DHT22;4624;48.126;11.546;2022-09-27T04:00:18;11.00;99.90
9179;DHT22;4624;48.126;11.546;2022-09-27T04:02:45;11.10;99.90
9179;DHT22;4624;48.126;11.546;2022-09-27T04:05:11;11.10;99.90
9179;DHT22;4624;48.126;11.546;2022-09-27T04:07:38;11.00;99.90
9179;DHT22;4624;48.126;11.546;2022-09-27T04:10:06;11.00;99.90
9179;DHT22;4624;48.126;11.546;2022-09-27T04:12:34;11.00;99.90
9179;DHT22;4624;48.126;11.546;2022-09-27T04:15:01;11.10;99.90
9179;DHT22;4624;48.126;11.546;2022-09-27T04:17:28;11.10;99.90
9179;DHT22;4624;48.126;11.546;2022-09-27T04:19:55;11.10;99.90
9179;DHT22;4624;48.126;11.546;2022-09-27T04:22:22;11.10;99.90
9179;DHT22;4624;48.126;11.546;2022-09-27T04:24:49;11.00;99.90
9179;DHT22;4624;48.126;11.546;2022-09-27T04:27:16;11.00;99.90
9179;DHT22;4624;48.126;11.546;2022-09-27T04:29:44;11.00;99.90
9179;DHT22;4624;48.126;11.546;2022-09-27T04:32:11;11.00;99.90
9179;DHT22;4624;48.126;11.546;2022-09-27T04:34:38;11.00;99.90
9179;DHT22;4624;48.126;11.546;2022-09-27T04:37:22;11.00;99.90
9179;DHT22;4624;48.126;11.546;2022-09-27T04:39:49;10.90;99.90
9179;DHT22;4624;48.126;11.546;2022-09-27T04:42:16;10.90;99.90
9179;DHT22;4624;48.126;11.546;2022-09-27T04:44:45;10.90;99.90
9179;DHT22;4624;48.126;11.546;2022-09-27T04:47:12;10.90;99.90
9179;DHT22;4624;48.126;11.546;2022-09-27T04:49:39;10.90;99.90
9179;DHT22;4624;48.126;11.546;2022-09-27T04:52:06;10.80;99.90
9179;DHT22;4624;48.126;11.546;2022-09-27T04:54:33;10.80;99.90
9179;DHT22;4624;48.126;11.546;2022-09-27T04:57:00;10.80;99.90
9179;DHT22;4624;48.126;11.546;2022-09-27T04:59:26;10.80;99.90
9179;DHT22;4624;48.126;11.546;2022-09-27T05:01:55;10.80;99.90
9179;DHT22;4624;48.126;11.546;2022-09-27T05:04:24;10.80;99.90
9179;DHT22;4624;48.126;11.546;2022-09-27T05:06:50;10.80;99.90
9179;DHT22;4624;48.126;11.546;2022-09-27T05:09:18;10.80;99.90
9179;DHT22;4624;48.126;11.546;2022-09-27T05:11:45;10.70;99.90
9179;DHT22;4624;48.126;11.546;2022-09-27T05:14:12;10.70;99.90
9179;DHT22;4624;48.126;11.546;2022-09-27T05:16:39;10.70;99.90
9179;DHT22;4624;48.126;11.546;2022-09-27T05:19:07;10.70;99.90
9179;DHT22;4624;48.126;11.546;2022-09-27T05:21:34;10.60;99.90
9179;DHT22;4624;48.126;11.546;2022-09-27T05:24:01;10.70;99.90
9179;DHT22;4624;48.126;11.546;2022-09-27T05:26:28;10.70;99.90
9179;DHT22;4624;48.126;11.546;2022-09-27T05:28:55;10.70;99.90
9179;DHT22;4624;48.126;11.546;2022-09-27T05:31:21;10.70;99.90
9179;DHT22;4624;48.126;11.546;2022-09-27T05:33:48;10.70;99.90
9179;DHT22;4624;48.126;11.546;2022-09-27T05:36:16;10.70;99.90
9179;DHT22;4624;48.126;11.546;2022-09-27T05:38:43;10.70;99.90
9179;DHT22;4624;48.126;11.546;2022-09-27T05:41:10;10.70;99.90
9179;DHT22;4624;48.126;11.546;2022-09-27T05:43:37;10.70;99.90
9179;DHT22;4624;48.126;11.546;2022-09-27T05:46:04;10.70;99.90
9179;DHT22;4624;48.126;11.546;2022-09-27T05:48:31;10.60;99.90
9179;DHT22;4624;48.126;11.546;2022-09-27T05:50:58;10.60;99.90
9179;DHT22;4624;48.126;11.546;2022-09-27T05:53:26;10.60;99.90
9179;DHT22;4624;48.126;11.546;2022-09-27T05:55:53;10.60;99.90
9179;DHT22;4624;48.126;11.546;2022-09-27T05:58:20;10.60;99.90
9179;DHT22;4624;48.126;11.546;2022-09-27T06:00:47;10.60;99.90
9179;DHT22;4624;48.126;11.546;2022-09-27T06:03:14;10.60;99.90
9179;DHT22;4624;48.126;11.546;2022-09-27T06:05:40;10.60;99.90
9179;DHT22;4624;48.126;11.546;2022-09-27T06:08:09;10.70;99.90
9179;DHT22;4624;48.126;11.546;2022-09-27T06:10:38;10.60;99.90
9179;DHT22;4624;48.126;11.546;2022-09-27T06:13:07;10.60;99.90
9179;DHT22;4624;48.126;11.546;2022-09-27T06:15:36;10.60;99.90
9179;DHT22;4624;48.126;11.546;2022-09-27T06:18:05;10.60;99.90
9179;DHT22;4624;48.126;11.546;2022-09-27T06:20:33;10.60;99.90
9179;DHT22;4624;48.126;11.546;2022-09-27T06:23:04;10.60;99.90
9179;DHT22;4624;48.126;11.546;2022-09-27T06:25:32;10.60;99.90
9179;DHT22;4624;48.126;11.546;2022-09-27T06:28:00;10.60;99.90
9179;DHT22;4624;48.126;11.546;2022-09-27T06:30:28;10.60;99.90
9179;DHT22;4624;48.126;11.546;2022-09-27T06:32:56;10.60;99.90
9179;DHT22;4624;48.126;11.546;2022-09-27T06:35:23;10.70;99.90
9179;DHT22;4624;48.126;11.546;2022-09-27T06:37:50;10.70;99.90
9179;DHT22;4624;48.126;11.546;2022-09-27T06:40:17;10.70;99.90
9179;DHT22;4624;48.126;11.546;2022-09-27T06:42:44;10.70;99.90
9179;DHT22;4624;48.126;11.546;2022-09-27T06:45:13;11.00;99.90
9179;DHT22;4624;48.126;11.546;2022-09-27T06:47:40;11.40;99.90
9179;DHT22;4624;48.126;11.546;2022-09-27T06:50:07;11.90;99.90
9179;DHT22;4624;48.126;11.546;2022-09-27T06:52:35;12.30;99.90
9179;DHT22;4624;48.126;11.546;2022-09-27T06:55:03;12.50;99.90
9179;DHT22;4624;48.126;11.546;2022-09-27T06:57:30;12.70;99.90
9179;DHT22;4624;48.126;11.546;2022-09-27T07:00:16;12.70;99.90
9179;DHT22;4624;48.126;11.546;2022-09-27T07:02:49;12.80;99.90
9179;DHT22;4624;48.126;11.546;2022-09-27T07:05:16;12.90;99.90
9179;DHT22;4624;48.126;11.546;2022-09-27T07:07:43;12.90;99.90
9179;DHT22;4624;48.126;11.546;2022-09-27T07:10:13;12.80;99.90
9179;DHT22;4624;48.126;11.546;2022-09-27T07:12:42;12.80;99.90
9179;DHT22;4624;48.126;11.546;2022-09-27T07:15:13;12.70;99.90
9179;DHT22;4624;48.126;11.546;2022-09-27T07:17:42;12.60;99.90
9179;DHT22;4624;48.126;11.546;2022-09-27T07:20:09;12.50;99.90
9179;DHT22;4624;48.126;11.546;2022-09-27T07:22:39;12.40;99.90
9179;DHT22;4624;48.126;11.546;2022-09-27T07:25:07;12.40;99.90
9179;DHT22;4624;48.126;11.546;2022-09-27T07:27:34;12.30;99.90
9179;DHT22;4624;48.126;11.546;2022-09-27T07:30:01;12.20;99.90
9179;DHT22;4624;48.126;11.546;2022-09-27T07:32:28;12.20;99.90
9179;DHT22;4624;48.126;11.546;2022-09-27T07:34:56;12.30;99.90
9179;DHT22;4624;48.126;11.546;2022-09-27T07:37:23;12.30;99.90
9179;DHT22;4624;48.126;11.546;2022-09-27T07:39:50;12.20;99.90
9179;DHT22;4624;48.126;11.546;2022-09-27T07:42:16;12.60;99.90
9179;DHT22;4624;48.126;11.546;2022-09-27T07:44:44;12.80;99.90
9179;DHT22;4624;48.126;11.546;2022-09-27T07:47:11;12.80;99.90
9179;DHT22;4624;48.126;11.546;2022-09-27T07:49:37;13.00;99.90
9179;DHT22;4624;48.126;11.546;2022-09-27T07:52:06;13.20;99.90
9179;DHT22;4624;48.126;11.546;2022-09-27T07:54:32;13.00;99.50
9179;DHT22;4624;48.126;11.546;2022-09-27T07:56:59;12.80;99.40
9179;DHT22;4624;48.126;11.546;2022-09-27T07:59:27;12.60;99.20
9179;DHT22;4624;48.126;11.546;2022-09-27T08:01:54;12.50;99.30
9179;DHT22;4624;48.126;11.546;2022-09-27T08:04:21;12.40;98.90
9179;DHT22;4624;48.126;11.546;2022-09-27T08:06:48;12.40;98.90
9179;DHT22;4624;48.126;11.546;2022-09-27T08:09:17;12.40;98.50
9179;DHT22;4624;48.126;11.546;2022-09-27T08:11:43;12.50;98.30
9179;DHT22;4624;48.126;11.546;2022-09-27T08:14:10;12.50;98.20
9179;DHT22;4624;48.126;11.546;2022-09-27T08:16:39;12.20;98.60
9179;DHT22;4624;48.126;11.546;2022-09-27T08:19:06;12.00;99.20
9179;DHT22;4624;48.126;11.546;2022-09-27T08:21:33;11.80;99.40
9179;DHT22;4624;48.126;11.546;2022-09-27T08:24:00;11.50;99.50
9179;DHT22;4624;48.126;11.546;2022-09-27T08:26:29;11.40;99.60
9179;DHT22;4624;48.126;11.546;2022-09-27T08:28:56;11.30;99.50
9179;DHT22;4624;48.126;11.546;2022-09-27T08:31:23;11.20;99.60
9179;DHT22;4624;48.126;11.546;2022-09-27T08:33:50;11.10;99.80
9179;DHT22;4624;48.126;11.546;2022-09-27T08:36:18;10.90;99.90
9179;DHT22;4624;48.126;11.546;2022-09-27T08:38:47;10.80;99.90
9179;DHT22;4624;48.126;11.546;2022-09-27T08:41:22;10.80;99.90
9179;DHT22;4624;48.126;11.546;2022-09-27T08:44:02;10.70;99.90
9179;DHT22;4624;48.126;11.546;2022-09-27T08:46:40;10.70;99.90
9179;DHT22;4624;48.126;11.546;2022-09-27T08:49:12;10.80;99.90
9179;DHT22;4624;48.126;11.546;2022-09-27T08:51:41;11.00;99.90
9179;DHT22;4624;48.126;11.546;2022-09-27T08:54:13;11.20;99.90
9179;DHT22;4624;48.126;11.546;2022-09-27T08:56:43;12.10;99.90
9179;DHT22;4624;48.126;11.546;2022-09-27T08:59:13;13.30;99.90
9179;DHT22;4624;48.126;11.546;2022-09-27T09:01:45;14.80;99.90
9179;DHT22;4624;48.126;11.546;2022-09-27T09:04:22;15.40;98.70
9179;DHT22;4624;48.126;11.546;2022-09-27T09:06:57;15.20;97.40
9179;DHT22;4624;48.126;11.546;2022-09-27T09:09:35;14.70;96.80
9179;DHT22;4624;48.126;11.546;2022-09-27T09:12:16;14.10;96.80
9179;DHT22;4624;48.126;11.546;2022-09-27T09:15:15;14.10;97.10
9179;DHT22;4624;48.126;11.546;2022-09-27T09:17:54;15.20;97.20
9179;DHT22;4624;48.126;11.546;2022-09-27T09:20:33;16.50;96.20
9179;DHT22;4624;48.126;11.546;2022-09-27T09:23:26;18.00;95.10
9179;DHT22;4624;48.126;11.546;2022-09-27T09:26:00;18.70;92.10
9179;DHT22;4624;48.126;11.546;2022-09-27T09:28:38;19.10;91.20
9179;DHT22;4624;48.126;11.546;2022-09-27T09:31:12;20.30;90.20
9179;DHT22;4624;48.126;11.546;2022-09-27T09:33:46;20.80;85.20
9179;DHT22;4624;48.126;11.546;2022-09-27T09:36:22;20.50;80.50
9179;DHT22;4624;48.126;11.546;2022-09-27T09:38:52;20.50;79.20
9179;DHT22;4624;48.126;11.546;2022-09-27T09:41:24;19.40;78.90
9179;DHT22;4624;48.126;11.546;2022-09-27T09:43:56;18.20;80.10
9179;DHT22;4624;48.126;11.546;2022-09-27T09:46:32;17.00;82.00
9179;DHT22;4624;48.126;11.546;2022-09-27T09:49:03;16.00;83.80
9179;DHT22;4624;48.126;11.546;2022-09-27T09:51:38;15.10;85.90
9179;DHT22;4624;48.126;11.546;2022-09-27T09:54:11;14.60;88.40
9179;DHT22;4624;48.126;11.546;2022-09-27T09:56:44;14.00;90.00
9179;DHT22;4624;48.126;11.546;2022-09-27T09:59:16;13.70;90.60
9179;DHT22;4624;48.126;11.546;2022-09-27T10:01:47;13.40;91.10
9179;DHT22;4624;48.126;11.546;2022-09-27T10:04:18;13.30;91.80
9179;DHT22;4624;48.126;11.546;2022-09-27T10:06:45;13.30;92.30
9179;DHT22;4624;48.126;11.546;2022-09-27T10:09:14;13.10;92.60
9179;DHT22;4624;48.126;11.546;2022-09-27T10:11:44;12.80;92.70
9179;DHT22;4624;48.126;11.546;2022-09-27T10:14:14;12.60;93.40
9179;DHT22;4624;48.126;11.546;2022-09-27T10:16:44;12.40;93.80
9179;DHT22;4624;48.126;11.546;2022-09-27T10:19:16;12.20;94.50
9179;DHT22;4624;48.126;11.546;2022-09-27T10:21:45;12.10;94.90
9179;DHT22;4624;48.126;11.546;2022-09-27T10:24:15;12.00;95.10
9179;DHT22;4624;48.126;11.546;2022-09-27T10:26:45;11.90;95.20
9179;DHT22;4624;48.126;11.546;2022-09-27T10:29:22;11.80;95.50
9179;DHT22;4624;48.126;11.546;2022-09-27T10:31:50;11.70;95.90
9179;DHT22;4624;48.126;11.546;2022-09-27T10:34:25;11.90;96.30
9179;DHT22;4624;48.126;11.546;2022-09-27T10:37:14;12.40;96.20
9179;DHT22;4624;48.126;11.546;2022-09-27T10:39:43;12.60;96.10
9179;DHT22;4624;48.126;11.546;2022-09-27T10:42:22;12.40;96.10
9179;DHT22;4624;48.126;11.546;2022-09-27T10:44:56;12.20;96.30
9179;DHT22;4624;48.126;11.546;2022-09-27T10:47:24;12.10;96.70
9179;DHT22;4624;48.126;11.546;2022-09-27T10:50:02;11.90;97.20
9179;DHT22;4624;48.126;11.546;2022-09-27T10:52:31;11.80;97.80
9179;DHT22;4624;48.126;11.546;2022-09-27T10:55:00;11.70;98.10
9179;DHT22;4624;48.126;11.546;2022-09-27T10:57:30;11.70;98.70
9179;DHT22;4624;48.126;11.546;2022-09-27T10:59:59;11.60;98.70
9179;DHT22;4624;48.126;11.546;2022-09-27T11:02:29;11.80;99.30
9179;DHT22;4624;48.126;11.546;2022-09-27T11:05:08;12.10;99.60
9179;DHT22;4624;48.126;11.546;2022-09-27T11:07:36;13.90;99.00
9179;DHT22;4624;48.126;11.546;2022-09-27T11:10:23;15.40;97.90
9179;DHT22;4624;48.126;11.546;2022-09-27T11:13:10;16.30;96.30
9179;DHT22;4624;48.126;11.546;2022-09-27T11:15:51;15.80;96.50
9179;DHT22;4624;48.126;11.546;2022-09-27T11:18:29;16.30;95.40
9179;DHT22;4624;48.126;11.546;2022-09-27T11:21:10;16.70;94.50
9179;DHT22;4624;48.126;11.546;2022-09-27T11:23:52;16.80;93.80
9179;DHT22;4624;48.126;11.546;2022-09-27T11:26:32;16.10;92.70
9179;DHT22;4624;48.126;11.546;2022-09-27T11:29:13;15.00;92.90
9179;DHT22;4624;48.126;11.546;2022-09-27T11:32:03;14.10;93.80
9179;DHT22;4624;48.126;11.546;2022-09-27T11:34:47;13.50;94.50
9179;DHT22;4624;48.126;11.546;2022-09-27T11:37:27;13.00;95.00
9179;DHT22;4624;48.126;11.546;2022-09-27T11:40:10;12.50;95.10
9179;DHT22;4624;48.126;11.546;2022-09-27T11:45:43;12.10;96.10
9179;DHT22;4624;48.126;11.546;2022-09-27T11:48:22;12.40;96.40
9179;DHT22;4624;48.126;11.546;2022-09-27T11:53:56;13.20;95.90
9179;DHT22;4624;48.126;11.546;2022-09-27T11:56:36;13.60;95.90
9179;DHT22;4624;48.126;11.546;2022-09-27T11:59:21;13.80;95.50
9179;DHT22;4624;48.126;11.546;2022-09-27T12:02:00;13.50;95.30
9179;DHT22;4624;48.126;11.546;2022-09-27T12:04:56;13.10;95.20
9179;DHT22;4624;48.126;11.546;2022-09-27T12:07:34;12.90;95.60
9179;DHT22;4624;48.126;11.546;2022-09-27T12:10:09;12.70;96.00
9179;DHT22;4624;48.126;11.546;2022-09-27T12:12:40;12.80;96.20
9179;DHT22;4624;48.126;11.546;2022-09-27T12:15:14;12.80;96.30
9179;DHT22;4624;48.126;11.546;2022-09-27T12:17:43;12.60;96.60
9179;DHT22;4624;48.126;11.546;2022-09-27T12:20:18;12.60;96.80
9179;DHT22;4624;48.126;11.546;2022-09-27T12:22:51;12.90;97.10
9179;DHT22;4624;48.126;11.546;2022-09-27T12:25:20;12.90;97.00
9179;DHT22;4624;48.126;11.546;2022-09-27T12:27:51;13.10;97.10
9179;DHT22;4624;48.126;11.546;2022-09-27T12:30:20;13.60;97.40
9179;DHT22;4624;48.126;11.546;2022-09-27T12:32:54;13.70;97.20
9179;DHT22;4624;48.126;11.546;2022-09-27T12:35:26;13.70;96.80
9179;DHT22;4624;48.126;11.546;2022-09-27T12:37:58;13.90;96.50
9179;DHT22;4624;48.126;11.546;2022-09-27T12:40:28;14.00;96.40
9179;DHT22;4624;48.126;11.546;2022-09-27T12:42:59;14.30;96.60
9179;DHT22;4624;48.126;11.546;2022-09-27T12:45:40;14.50;96.60
9179;DHT22;4624;48.126;11.546;2022-09-27T12:48:16;14.80;96.70
9179;DHT22;4624;48.126;11.546;2022-09-27T12:50:53;14.80;95.30
9179;DHT22;4624;48.126;11.546;2022-09-27T12:53:22;14.80;95.80
9179;DHT22;4624;48.126;11.546;2022-09-27T12:56:22;14.90;95.80
9179;DHT22;4624;48.126;11.546;2022-09-27T12:59:14;14.80;95.20
9179;DHT22;4624;48.126;11.546;2022-09-27T13:01:57;14.50;94.70
9179;DHT22;4624;48.126;11.546;2022-09-27T13:07:29;14.50;93.80
9179;DHT22;4624;48.126;11.546;2022-09-27T13:10:28;14.30;93.20
9179;DHT22;4624;48.126;11.546;2022-09-27T13:13:00;14.20;92.90
9179;DHT22;4624;48.126;11.546;2022-09-27T13:15:31;14.00;92.00
9179;DHT22;4624;48.126;11.546;2022-09-27T13:17:59;13.90;90.90
9179;DHT22;4624;48.126;11.546;2022-09-27T13:20:46;13.80;90.50
9179;DHT22;4624;48.126;11.546;2022-09-27T13:26:23;13.60;88.70
9179;DHT22;4624;48.126;11.546;2022-09-27T13:29:28;13.50;89.80
9179;DHT22;4624;48.126;11.546;2022-09-27T13:32:18;13.50;90.00
9179;DHT22;4624;48.126;11.546;2022-09-27T13:34:46;13.40;89.30
9179;DHT22;4624;48.126;11.546;2022-09-27T13:37:45;13.40;89.80
9179;DHT22;4624;48.126;11.546;2022-09-27T13:40:29;13.30;89.90
9179;DHT22;4624;48.126;11.546;2022-09-27T13:46:16;13.20;90.20
9179;DHT22;4624;48.126;11.546;2022-09-27T13:48:49;13.10;90.10
9179;DHT22;4624;48.126;11.546;2022-09-27T13:53:55;13.00;90.40
9179;DHT22;4624;48.126;11.546;2022-09-27T13:56:48;12.90;90.50
9179;DHT22;4624;48.126;11.546;2022-09-27T13:59:17;12.80;90.50
9179;DHT22;4624;48.126;11.546;2022-09-27T14:01:50;12.70;90.70
9179;DHT22;4624;48.126;11.546;2022-09-27T14:04:19;12.70;90.80
9179;DHT22;4624;48.126;11.546;2022-09-27T14:06:50;12.50;91.10
9179;DHT22;4624;48.126;11.546;2022-09-27T14:09:22;12.50;91.60
9179;DHT22;4624;48.126;11.546;2022-09-27T14:11:52;12.40;92.10
9179;DHT22;4624;48.126;11.546;2022-09-27T14:14:22;12.30;92.30
9179;DHT22;4624;48.126;11.546;2022-09-27T14:16:52;12.30;92.50
9179;DHT22;4624;48.126;11.546;2022-09-27T14:19:21;12.20;92.50
9179;DHT22;4624;48.126;11.546;2022-09-27T14:21:50;12.20;92.70
9179;DHT22;4624;48.126;11.546;2022-09-27T14:24:28;12.20;92.80
9179;DHT22;4624;48.126;11.546;2022-09-27T14:27:13;12.20;92.80
9179;DHT22;4624;48.126;11.546;2022-09-27T14:29:45;12.30;92.90
9179;DHT22;4624;48.126;11.546;2022-09-27T14:32:14;12.40;92.30
9179;DHT22;4624;48.126;11.546;2022-09-27T14:34:42;12.40;92.30
9179;DHT22;4624;48.126;11.546;2022-09-27T14:37:21;12.40;92.10
9179;DHT22;4624;48.126;11.546;2022-09-27T14:40:02;12.30;91.70
9179;DHT22;4624;48.126;11.546;2022-09-27T14:42:34;12.10;91.70
9179;DHT22;4624;48.126;11.546;2022-09-27T14:45:13;11.90;91.80
9179;DHT22;4624;48.126;11.546;2022-09-27T14:47:46;11.80;92.00
9179;DHT22;4624;48.126;11.546;2022-09-27T14:50:18;11.70;92.30
9179;DHT22;4624;48.126;11.546;2022-09-27T14:52:45;11.70;92.50
9179;DHT22;4624;48.126;11.546;2022-09-27T14:55:16;11.60;92.50
9179;DHT22;4624;48.126;11.546;2022-09-27T14:57:45;11.60;92.70
9179;DHT22;4624;48.126;11.546;2022-09-27T15:00:18;11.60;92.90
9179;DHT22;4624;48.126;11.546;2022-09-27T15:02:48;11.60;93.00
9179;DHT22;4624;48.126;11.546;2022-09-27T15:05:21;11.60;93.20
9179;DHT22;4624;48.126;11.546;2022-09-27T15:07:48;11.60;93.40
9179;DHT22;4624;48.126;11.546;2022-09-27T15:10:17;11.60;93.40
9179;DHT22;4624;48.126;11.546;2022-09-27T15:12:46;11.60;93.40
9179;DHT22;4624;48.126;11.546;2022-09-27T15:15:15;11.60;93.60
9179;DHT22;4624;48.126;11.546;2022-09-27T15:17:44;11.60;93.60
9179;DHT22;4624;48.126;11.546;2022-09-27T15:20:23;11.70;93.80
9179;DHT22;4624;48.126;11.546;2022-09-27T15:22:52;11.70;93.90
9179;DHT22;4624;48.126;11.546;2022-09-27T15:25:23;11.60;93.90
9179;DHT22;4624;48.126;11.546;2022-09-27T15:28:00;11.60;94.00
9179;DHT22;4624;48.126;11.546;2022-09-27T15:30:33;11.60;93.90
9179;DHT22;4624;48.126;11.546;2022-09-27T15:33:01;11.60;94.00
9179;DHT22;4624;48.126;11.546;2022-09-27T15:35:31;11.60;94.10
9179;DHT22;4624;48.126;11.546;2022-09-27T15:38:21;11.70;94.20
9179;DHT22;4624;48.126;11.546;2022-09-27T15:41:07;11.90;94.30
9179;DHT22;4624;48.126;11.546;2022-09-27T15:43:36;12.00;94.30
9179;DHT22;4624;48.126;11.546;2022-09-27T15:46:25;12.00;94.20
9179;DHT22;4624;48.126;11.546;2022-09-27T15:49:19;12.10;94.10
9179;DHT22;4624;48.126;11.546;2022-09-27T15:51:48;12.00;93.90
9179;DHT22;4624;48.126;11.546;2022-09-27T15:54:17;11.90;93.90
9179;DHT22;4624;48.126;11.546;2022-09-27T15:56:45;11.90;94.00
9179;DHT22;4624;48.126;11.546;2022-09-27T15:59:18;11.70;94.00
9179;DHT22;4624;48.126;11.546;2022-09-27T16:01:45;11.70;94.10
9179;DHT22;4624;48.126;11.546;2022-09-27T16:04:12;11.60;94.10
9179;DHT22;4624;48.126;11.546;2022-09-27T16:06:39;11.60;94.20
9179;DHT22;4624;48.126;11.546;2022-09-27T16:09:13;11.60;94.40
9179;DHT22;4624;48.126;11.546;2022-09-27T16:11:42;11.60;95.00
9179;DHT22;4624;48.126;11.546;2022-09-27T16:14:09;11.50;95.70
9179;DHT22;4624;48.126;11.546;2022-09-27T16:16:39;11.40;96.10
9179;DHT22;4624;48.126;11.546;2022-09-27T16:19:07;11.40;96.40
9179;DHT22;4624;48.126;11.546;2022-09-27T16:21:34;11.40;96.80
9179;DHT22;4624;48.126;11.546;2022-09-27T16:24:00;11.40;96.90
9179;DHT22;4624;48.126;11.546;2022-09-27T16:26:30;11.40;97.20
9179;DHT22;4624;48.126;11.546;2022-09-27T16:28:58;11.40;97.50
9179;DHT22;4624;48.126;11.546;2022-09-27T16:31:25;11.30;97.60
9179;DHT22;4624;48.126;11.546;2022-09-27T16:33:52;11.30;97.50
9179;DHT22;4624;48.126;11.546;2022-09-27T16:36:18;11.20;97.40